createdAt,value
2023-02-09T00:01:20.080Z,22.15
2023-02-09T00:03:48.040Z,22.85
2023-02-09T00:06:18.758Z,21.38
2023-02-09T00:08:46.900Z,20.55
2023-02-09T00:11:43.440Z,22.77
2023-02-09T00:14:16.163Z,20.40
2023-02-09T00:16:44.001Z,22.77
2023-02-09T00:19:12.735Z,23.98
2023-02-09T00:21:41.375Z,22.63
2023-02-09T00:24:10.884Z,22.95
2023-02-09T00:26:39.381Z,22.75
2023-02-09T00:29:07.523Z,23.10
2023-02-09T00:31:35.764Z,22.02
2023-02-09T00:34:04.741Z,22.58
2023-02-09T00:36:32.479Z,26.13
2023-02-09T00:39:00.000Z,22.63
2023-02-09T00:41:46.883Z,26.52
2023-02-09T00:44:14.131Z,20.58
2023-02-09T00:46:41.610Z,25.23
2023-02-09T00:49:08.887Z,24.75
2023-02-09T00:51:36.456Z,24.65
2023-02-09T00:54:04.360Z,23.48
2023-02-09T00:56:31.976Z,24.27
2023-02-09T00:59:00.241Z,24.40
2023-02-09T01:01:27.874Z,21.75
2023-02-09T01:03:55.378Z,22.42
2023-02-09T01:06:22.899Z,24.60
2023-02-09T01:08:50.982Z,24.83
2023-02-09T01:11:18.930Z,24.63
2023-02-09T01:13:47.278Z,26.08
2023-02-09T01:16:17.539Z,26.40
2023-02-09T01:18:45.642Z,23.98
2023-02-09T01:21:20.288Z,25.10
2023-02-09T01:23:48.317Z,25.88
2023-02-09T01:26:18.422Z,26.00
2023-02-09T01:28:50.583Z,23.23
2023-02-09T01:31:28.105Z,24.33
2023-02-09T01:33:57.179Z,23.90
2023-02-09T01:36:29.249Z,25.05
2023-02-09T01:38:58.544Z,22.45
2023-02-09T01:41:26.418Z,24.50
2023-02-09T01:44:01.463Z,25.70
2023-02-09T01:46:31.901Z,22.90
2023-02-09T01:49:04.532Z,23.48
2023-02-09T01:51:42.733Z,22.88
2023-02-09T01:54:15.110Z,24.30
2023-02-09T01:56:47.720Z,23.58
2023-02-09T01:59:16.132Z,23.15
2023-02-09T02:01:44.397Z,22.85
2023-02-09T02:04:12.688Z,24.15
2023-02-09T02:06:40.810Z,23.58
2023-02-09T02:09:15.247Z,23.88
2023-02-09T02:11:45.904Z,23.83
2023-02-09T02:14:33.041Z,23.95
2023-02-09T02:17:20.548Z,23.48
2023-02-09T02:20:16.520Z,23.33
2023-02-09T02:22:55.713Z,24.60
2023-02-09T02:26:00.010Z,24.05
2023-02-09T02:28:42.438Z,25.15
2023-02-09T02:31:47.041Z,26.27
2023-02-09T02:34:33.359Z,25.08
2023-02-09T02:37:35.111Z,24.33
2023-02-09T02:40:24.262Z,24.25
2023-02-09T02:43:00.229Z,25.88
2023-02-09T02:45:51.280Z,23.75
2023-02-09T02:48:27.629Z,27.38
2023-02-09T02:51:00.906Z,27.33
2023-02-09T02:53:31.437Z,24.85
2023-02-09T02:56:06.320Z,25.83
2023-02-09T02:58:36.755Z,25.83
2023-02-09T03:01:08.153Z,25.23
2023-02-09T03:03:37.591Z,26.67
2023-02-09T03:06:06.301Z,24.58
2023-02-09T03:08:47.802Z,24.48
2023-02-09T03:11:15.389Z,26.58
2023-02-09T03:13:51.464Z,26.63
2023-02-09T03:16:33.869Z,21.95
2023-02-09T03:19:07.059Z,25.55
2023-02-09T03:21:39.986Z,27.45
2023-02-09T03:24:44.215Z,28.55
2023-02-09T03:27:31.926Z,26.75
2023-02-09T03:32:28.651Z,26.13
2023-02-09T03:34:56.845Z,28.15
2023-02-09T03:37:24.928Z,26.45
2023-02-09T03:39:52.044Z,27.27
2023-02-09T03:42:19.735Z,27.10
2023-02-09T03:44:46.970Z,27.85
2023-02-09T03:47:14.452Z,26.70
2023-02-09T03:49:42.275Z,29.77
2023-02-09T03:52:13.738Z,28.80
2023-02-09T03:54:41.091Z,29.25
2023-02-09T03:57:09.695Z,25.60
2023-02-09T03:59:40.295Z,26.55
2023-02-09T04:02:10.164Z,28.75
2023-02-09T04:04:37.540Z,30.20
2023-02-09T04:07:05.238Z,29.50
2023-02-09T04:09:32.549Z,26.17
2023-02-09T04:12:00.025Z,27.88
2023-02-09T04:14:27.257Z,29.48
2023-02-09T04:16:54.694Z,30.73
2023-02-09T04:19:21.890Z,30.45
2023-02-09T04:21:49.319Z,32.58
2023-02-09T04:29:20.687Z,26.35
2023-02-09T04:31:48.182Z,25.77
2023-02-09T04:34:15.524Z,26.83
2023-02-09T04:36:43.382Z,30.05
2023-02-09T04:39:10.511Z,29.67
2023-02-09T04:41:38.195Z,31.45
2023-02-09T04:44:05.702Z,31.25
2023-02-09T04:46:33.211Z,28.73
2023-02-09T04:49:00.583Z,28.42
2023-02-09T04:51:28.020Z,30.30
2023-02-09T04:53:55.268Z,29.58
2023-02-09T04:56:22.636Z,28.58
2023-02-09T04:59:08.348Z,29.15
2023-02-09T05:01:35.913Z,27.10
2023-02-09T05:04:03.136Z,26.58
2023-02-09T05:06:30.585Z,29.65
2023-02-09T05:08:57.748Z,30.73
2023-02-09T05:11:25.738Z,30.95
2023-02-09T05:13:53.018Z,28.45
2023-02-09T05:16:20.556Z,28.88
2023-02-09T05:18:47.915Z,30.17
2023-02-09T05:21:15.587Z,28.40
2023-02-09T05:23:42.803Z,29.23
2023-02-09T05:26:10.356Z,29.77
2023-02-09T05:28:37.470Z,31.52
2023-02-09T05:31:05.384Z,32.50
2023-02-09T05:33:32.660Z,31.17
2023-02-09T05:36:00.128Z,30.35
2023-02-09T05:38:27.409Z,26.58
2023-02-09T05:40:54.872Z,29.08
2023-02-09T05:43:22.121Z,28.83
2023-02-09T05:45:49.609Z,31.27
2023-02-09T05:48:16.910Z,32.47
2023-02-09T05:50:44.553Z,30.25
2023-02-09T05:53:12.925Z,28.48
2023-02-09T05:55:41.539Z,30.10
2023-02-09T05:58:08.628Z,29.55
2023-02-09T06:00:36.288Z,29.52
2023-02-09T06:03:03.677Z,25.65
2023-02-09T06:05:31.116Z,28.48
2023-02-09T06:07:58.279Z,27.40
2023-02-09T06:10:25.787Z,27.92
2023-02-09T06:12:53.054Z,27.80
2023-02-09T06:15:21.145Z,29.33
2023-02-09T06:17:48.348Z,25.27
2023-02-09T06:20:15.786Z,26.92
2023-02-09T06:22:42.976Z,30.33
2023-02-09T06:25:11.688Z,29.27
2023-02-09T06:27:38.852Z,28.35
2023-02-09T06:30:06.863Z,28.48
2023-02-09T06:32:34.253Z,25.58
2023-02-09T06:35:01.820Z,28.55
2023-02-09T06:37:29.137Z,27.42
2023-02-09T06:39:56.545Z,28.35
2023-02-09T06:42:23.809Z,27.55
2023-02-09T06:44:51.226Z,25.98
2023-02-09T06:47:18.490Z,26.40
2023-02-09T06:49:45.993Z,30.13
2023-02-09T06:52:13.302Z,29.00
2023-02-09T06:54:40.977Z,29.17
2023-02-09T06:57:08.193Z,27.88
2023-02-09T06:59:35.679Z,27.02
2023-02-09T07:02:02.916Z,27.75
2023-02-09T07:04:30.630Z,27.17
2023-02-09T07:06:57.754Z,27.40
2023-02-09T07:09:25.210Z,30.25
2023-02-09T07:11:52.466Z,26.15
2023-02-09T07:14:19.947Z,28.77
2023-02-09T07:16:47.147Z,28.77
2023-02-09T07:19:14.778Z,28.25
2023-02-09T07:21:42.001Z,25.10
2023-02-09T07:24:09.565Z,25.52
2023-02-09T07:26:36.733Z,29.48
2023-02-09T07:29:04.480Z,29.70
2023-02-09T07:31:31.863Z,27.67
2023-02-09T07:33:59.666Z,27.20
2023-02-09T07:36:26.992Z,25.33
2023-02-09T07:38:55.848Z,25.98
2023-02-09T07:41:28.013Z,27.40
2023-02-09T07:43:56.606Z,23.35
2023-02-09T07:46:25.661Z,26.15
2023-02-09T07:48:53.250Z,24.08
2023-02-09T07:51:25.535Z,27.00
2023-02-09T07:53:54.309Z,25.50
2023-02-09T07:56:26.058Z,27.48
2023-02-09T07:58:54.541Z,25.73
2023-02-09T08:01:22.268Z,26.05
2023-02-09T08:03:51.027Z,23.88
2023-02-09T08:06:41.536Z,28.15
2023-02-09T08:09:11.929Z,24.00
2023-02-09T08:11:56.453Z,25.00
2023-02-09T08:14:28.492Z,25.02
2023-02-09T08:17:18.433Z,25.58
2023-02-09T08:19:50.496Z,22.75
2023-02-09T08:22:17.853Z,23.67
2023-02-09T08:24:45.836Z,24.35
2023-02-09T08:27:13.220Z,23.98
2023-02-09T08:29:41.060Z,26.05
2023-02-09T08:32:08.326Z,23.33
2023-02-09T08:34:35.818Z,24.42
2023-02-09T08:37:02.971Z,25.15
2023-02-09T08:39:30.779Z,27.00
2023-02-09T08:41:58.009Z,25.42
2023-02-09T08:44:26.258Z,25.45
2023-02-09T08:46:53.788Z,25.42
2023-02-09T08:49:21.426Z,26.10
2023-02-09T08:51:48.623Z,26.20
2023-02-09T08:54:16.328Z,23.35
2023-02-09T08:56:44.284Z,25.38
2023-02-09T08:59:12.590Z,24.48
2023-02-09T09:01:40.633Z,26.08
2023-02-09T09:04:08.648Z,24.77
2023-02-09T09:06:36.465Z,22.90
2023-02-09T09:09:04.235Z,23.77
2023-02-09T09:11:31.430Z,23.98
2023-02-09T09:13:58.954Z,25.02
2023-02-09T09:16:26.259Z,24.15
2023-02-09T09:18:53.715Z,27.10
2023-02-09T09:21:20.914Z,24.67
2023-02-09T09:23:48.905Z,24.67
2023-02-09T09:26:17.109Z,24.67
2023-02-09T09:28:45.304Z,46.65
2023-02-09T09:31:15.253Z,46.35
2023-02-09T09:33:43.990Z,27.13
2023-02-09T09:36:12.455Z,25.10
2023-02-09T09:38:40.543Z,23.98
2023-02-09T09:41:20.899Z,23.38
2023-02-09T09:43:49.671Z,25.70
2023-02-09T09:46:25.878Z,28.92
2023-02-09T09:48:58.401Z,23.05
2023-02-09T09:51:42.138Z,24.30
2023-02-09T09:54:17.230Z,22.58
2023-02-09T09:56:44.792Z,28.33
2023-02-09T09:59:19.626Z,22.45
2023-02-09T10:01:49.390Z,24.48
2023-02-09T10:04:17.238Z,26.52
2023-02-09T10:06:46.682Z,24.58
2023-02-09T10:09:17.108Z,23.95
2023-02-09T10:12:13.053Z,24.13
2023-02-09T10:14:40.583Z,23.25
2023-02-09T10:17:08.351Z,22.95
2023-02-09T10:19:36.113Z,21.13
2023-02-09T10:22:03.759Z,19.52
2023-02-09T10:24:33.808Z,21.58
2023-02-09T10:27:24.392Z,21.63
2023-02-09T10:29:52.045Z,19.85
2023-02-09T10:32:28.437Z,21.45
2023-02-09T10:34:57.974Z,29.25
2023-02-09T10:37:34.379Z,22.67
2023-02-09T10:40:07.753Z,17.88
2023-02-09T10:42:38.126Z,24.55
2023-02-09T10:45:20.703Z,22.77
2023-02-09T10:48:21.335Z,27.70
2023-02-09T10:50:57.728Z,15.63
2023-02-09T10:53:25.235Z,17.50
2023-02-09T10:56:05.209Z,17.38
2023-02-09T10:58:37.687Z,17.30
2023-02-09T11:01:17.400Z,17.33
2023-02-09T11:04:21.092Z,19.38
2023-02-09T11:06:50.324Z,14.93
2023-02-09T11:09:24.810Z,14.88
2023-02-09T11:11:53.124Z,16.83
2023-02-09T11:14:21.330Z,13.88
2023-02-09T11:16:56.585Z,13.35
2023-02-09T11:19:38.448Z,15.73
2023-02-09T11:22:05.907Z,13.10
2023-02-09T11:25:13.326Z,17.52
2023-02-09T11:28:01.078Z,12.90
2023-02-09T11:33:03.788Z,18.45
2023-02-09T11:36:07.889Z,15.30
2023-02-09T11:38:51.777Z,14.45
2023-02-09T11:41:51.045Z,13.30
2023-02-09T11:44:34.856Z,12.93
2023-02-09T11:47:08.386Z,15.38
2023-02-09T11:49:53.872Z,17.67
2023-02-09T11:52:47.327Z,15.63
2023-02-09T11:55:42.325Z,15.27
2023-02-09T11:58:15.146Z,16.38
2023-02-09T12:01:14.356Z,15.82
2023-02-09T12:04:05.555Z,14.43
2023-02-09T12:06:43.157Z,15.02
2023-02-09T12:09:21.600Z,20.20
2023-02-09T12:12:15.567Z,19.38
2023-02-09T12:14:55.356Z,17.65
2023-02-09T12:17:37.513Z,15.57
2023-02-09T12:20:05.922Z,17.52
2023-02-09T12:22:36.409Z,15.80
2023-02-09T12:25:12.386Z,21.13
2023-02-09T12:28:03.656Z,23.33
2023-02-09T12:30:42.922Z,21.52
2023-02-09T12:33:37.406Z,18.60
2023-02-09T12:36:10.704Z,19.98
2023-02-09T12:38:54.501Z,16.38
2023-02-09T12:41:33.780Z,23.15
2023-02-09T12:44:10.030Z,20.90
2023-02-09T12:46:51.490Z,23.00
2023-02-09T12:49:31.580Z,19.27
2023-02-09T12:52:02.048Z,19.60
2023-02-09T12:54:35.422Z,23.63
2023-02-09T12:57:15.195Z,19.65
2023-02-09T13:00:01.090Z,23.30
2023-02-09T13:02:50.487Z,25.10
2023-02-09T13:05:38.074Z,21.10
2023-02-09T13:08:11.438Z,21.90
2023-02-09T13:10:48.859Z,22.20
2023-02-09T13:13:24.618Z,22.67
2023-02-09T13:15:54.853Z,17.20
2023-02-09T13:18:42.644Z,23.08
2023-02-09T13:21:31.307Z,23.55
2023-02-09T13:24:09.366Z,21.50
2023-02-09T13:26:50.196Z,22.83
2023-02-09T13:29:26.083Z,19.58
2023-02-09T13:32:16.492Z,25.80
2023-02-09T13:35:08.442Z,24.45
2023-02-09T13:37:57.720Z,23.55
2023-02-09T13:40:31.902Z,22.85
2023-02-09T13:43:11.605Z,24.73
2023-02-09T13:45:53.672Z,33.08
2023-02-09T13:48:41.468Z,24.52
2023-02-09T13:51:18.813Z,24.42
2023-02-09T13:54:01.043Z,24.23
2023-02-09T13:56:30.389Z,29.17
2023-02-09T13:58:58.535Z,29.55
2023-02-09T14:01:30.431Z,23.02
2023-02-09T14:04:06.862Z,24.13
2023-02-09T14:06:46.135Z,23.23
2023-02-09T14:09:23.025Z,23.08
2023-02-09T14:11:58.445Z,25.83
2023-02-09T14:14:57.729Z,23.55
2023-02-09T14:17:28.425Z,23.52
2023-02-09T14:19:57.481Z,23.35
2023-02-09T14:22:39.412Z,25.50
2023-02-09T14:25:28.636Z,24.27
2023-02-09T14:27:56.976Z,27.30
2023-02-09T14:30:36.263Z,23.35
2023-02-09T14:33:03.929Z,23.73
2023-02-09T14:35:37.160Z,22.48
2023-02-09T14:38:04.697Z,22.00
2023-02-09T14:40:37.192Z,24.13
2023-02-09T14:43:04.395Z,23.23
2023-02-09T14:45:37.621Z,21.70
2023-02-09T14:48:22.957Z,25.35
2023-02-09T14:50:58.281Z,22.27
2023-02-09T14:53:31.232Z,23.98
2023-02-09T14:55:59.158Z,21.92
2023-02-09T14:58:31.612Z,21.98
2023-02-09T15:01:01.584Z,24.08
2023-02-09T15:03:29.103Z,22.20
2023-02-09T15:06:02.521Z,23.92
2023-02-09T15:08:33.226Z,24.45
2023-02-09T15:11:23.881Z,22.83
2023-02-09T15:13:57.816Z,22.15
2023-02-09T15:16:25.407Z,25.20
2023-02-09T15:18:52.684Z,24.00
2023-02-09T15:21:20.120Z,24.05
2023-02-09T15:23:47.466Z,23.77
2023-02-09T15:26:21.710Z,23.42
2023-02-09T15:28:49.059Z,23.80
2023-02-09T15:31:16.556Z,25.35
2023-02-09T15:33:43.970Z,25.52
2023-02-09T15:36:19.255Z,23.65
2023-02-09T15:38:47.412Z,24.42
2023-02-09T15:41:35.943Z,25.67
2023-02-09T15:44:34.511Z,22.40
2023-02-09T15:47:20.711Z,22.45
2023-02-09T15:49:47.902Z,22.17
2023-02-09T15:52:17.538Z,24.27
2023-02-09T15:54:45.407Z,22.42
2023-02-09T15:57:14.337Z,23.92
2023-02-09T15:59:42.661Z,25.63
2023-02-09T16:02:13.534Z,26.40
2023-02-09T16:04:40.848Z,29.60
2023-02-09T16:07:18.658Z,24.63
2023-02-09T16:09:45.911Z,25.55
2023-02-09T16:12:13.645Z,24.67
2023-02-09T16:14:40.777Z,24.55
2023-02-09T16:17:08.876Z,25.58
2023-02-09T16:19:36.022Z,26.48
2023-02-09T16:22:06.919Z,21.85
2023-02-09T16:24:41.029Z,23.02
2023-02-09T16:27:24.944Z,25.63
2023-02-09T16:29:52.089Z,24.70
2023-02-09T16:32:24.591Z,25.48
2023-02-09T16:34:52.439Z,26.50
2023-02-09T16:37:38.349Z,25.00
2023-02-09T16:40:27.301Z,23.35
2023-02-09T16:42:56.497Z,23.02
2023-02-09T16:45:25.896Z,23.50
2023-02-09T16:47:57.193Z,24.08
2023-02-09T16:50:34.562Z,22.38
2023-02-09T16:53:13.557Z,21.92
2023-02-09T16:55:42.157Z,24.92
2023-02-09T16:58:16.018Z,22.88
2023-02-09T17:00:44.817Z,21.95
2023-02-09T17:03:20.060Z,23.60
2023-02-09T17:05:52.980Z,26.23
2023-02-09T17:08:31.986Z,25.58
2023-02-09T17:11:00.232Z,25.05
2023-02-09T17:13:28.810Z,23.85
2023-02-09T17:16:03.848Z,24.65
2023-02-09T17:18:33.840Z,23.77
2023-02-09T17:21:04.458Z,25.15
2023-02-09T17:23:32.211Z,23.98
2023-02-09T17:25:59.876Z,23.90
2023-02-09T17:28:28.227Z,23.58
2023-02-09T17:31:00.741Z,24.35
2023-02-09T17:33:33.931Z,22.35
2023-02-09T17:38:50.137Z,24.17
2023-02-09T17:41:21.978Z,21.23
2023-02-09T17:43:50.783Z,23.73
2023-02-09T17:46:19.508Z,23.02
2023-02-09T17:48:48.221Z,25.00
2023-02-09T17:51:20.243Z,24.50
2023-02-09T17:53:48.908Z,25.90
2023-02-09T17:56:16.875Z,24.65
2023-02-09T17:58:44.546Z,24.45
2023-02-09T18:01:33.413Z,24.42
2023-02-09T18:04:02.259Z,25.08
2023-02-09T18:06:35.151Z,25.33
2023-02-09T18:09:05.685Z,24.73
2023-02-09T18:11:44.675Z,23.02
2023-02-09T18:14:16.886Z,22.77
2023-02-09T18:16:44.830Z,25.08
2023-02-09T18:19:12.763Z,31.67
2023-02-09T18:21:50.853Z,27.27
2023-02-09T18:24:20.570Z,26.40
2023-02-09T18:26:49.672Z,26.30
2023-02-09T18:29:18.010Z,32.75
2023-02-09T18:31:46.741Z,23.63
2023-02-09T18:34:15.607Z,24.95
2023-02-09T18:36:43.159Z,25.75
2023-02-09T18:39:10.687Z,24.67
2023-02-09T18:41:38.147Z,23.77
2023-02-09T18:44:05.677Z,22.85
2023-02-09T18:46:32.898Z,23.20
2023-02-09T18:49:03.160Z,25.60
2023-02-09T18:51:31.385Z,24.70
2023-02-09T18:54:00.282Z,23.05
2023-02-09T18:56:28.453Z,23.65
2023-02-09T18:58:55.866Z,24.05
2023-02-09T19:01:24.350Z,47.22
2023-02-09T19:03:53.223Z,21.45
2023-02-09T19:06:22.357Z,21.95
2023-02-09T19:08:50.521Z,20.75
2023-02-09T19:11:20.129Z,22.65
2023-02-09T19:14:07.850Z,21.05
2023-02-09T19:19:05.643Z,20.80
2023-02-09T19:21:32.843Z,21.33
2023-02-09T19:24:00.365Z,20.48
2023-02-09T19:26:27.533Z,22.27
2023-02-09T19:28:57.116Z,19.85
2023-02-09T19:31:24.852Z,20.42
2023-02-09T19:33:56.844Z,20.90
2023-02-09T19:36:28.044Z,19.90
2023-02-09T19:38:56.408Z,21.02
2023-02-09T19:41:25.595Z,24.73
2023-02-09T19:43:59.772Z,23.02
2023-02-09T19:46:27.119Z,20.73
2023-02-09T19:48:54.664Z,23.20
2023-02-09T19:51:22.314Z,20.50
2023-02-09T19:53:49.894Z,22.13
2023-02-09T19:56:19.563Z,22.60
2023-02-09T19:58:47.163Z,20.67
2023-02-09T20:01:14.400Z,18.90
2023-02-09T20:03:42.771Z,20.95
2023-02-09T20:06:12.928Z,22.70
2023-02-09T20:08:40.976Z,20.13
2023-02-09T20:11:10.852Z,20.85
2023-02-09T20:13:39.001Z,21.42
2023-02-09T20:16:11.100Z,20.55
2023-02-09T20:18:38.635Z,20.67
2023-02-09T20:21:09.560Z,21.38
2023-02-09T20:23:37.745Z,21.67
2023-02-09T20:26:22.677Z,20.55
2023-02-09T20:28:50.699Z,21.83
2023-02-09T20:31:26.929Z,20.20
2023-02-09T20:33:55.304Z,20.95
2023-02-09T20:36:24.478Z,19.55
2023-02-09T20:38:53.013Z,21.42
2023-02-09T20:41:20.239Z,21.23
2023-02-09T20:44:06.140Z,20.30
2023-02-09T20:46:52.543Z,19.95
2023-02-09T20:49:20.017Z,18.88
2023-02-09T20:51:47.699Z,17.80
2023-02-09T20:54:15.709Z,22.58
2023-02-09T20:56:43.312Z,21.13
2023-02-09T20:59:11.815Z,21.80
2023-02-09T21:01:39.748Z,22.95
2023-02-09T21:04:07.973Z,21.70
2023-02-09T21:06:39.674Z,23.00
2023-02-09T21:09:10.723Z,21.60
2023-02-09T21:11:38.015Z,21.30
2023-02-09T21:14:05.926Z,20.52
2023-02-09T21:16:38.109Z,21.65
2023-02-09T21:19:05.825Z,21.48
2023-02-09T21:21:33.035Z,21.42
2023-02-09T21:24:00.530Z,21.52
2023-02-09T21:26:28.806Z,19.65
2023-02-09T21:28:57.566Z,19.90
2023-02-09T21:31:27.121Z,21.25
2023-02-09T21:33:54.780Z,17.98
2023-02-09T21:36:22.031Z,19.23
2023-02-09T21:38:49.488Z,19.77
2023-02-09T21:41:41.612Z,23.67
2023-02-09T21:44:10.244Z,71.40
2023-02-09T21:46:37.881Z,84.32
2023-02-09T21:49:05.614Z,62.42
2023-02-09T21:51:33.069Z,40.03
2023-02-09T21:54:00.451Z,35.53
2023-02-09T21:56:27.713Z,22.77
2023-02-09T21:58:55.518Z,48.38
2023-02-09T22:01:22.765Z,45.95
2023-02-09T22:03:57.127Z,29.92
2023-02-09T22:06:25.694Z,20.92
2023-02-09T22:08:53.607Z,19.02
2023-02-09T22:11:20.826Z,21.25
2023-02-09T22:13:48.489Z,21.08
2023-02-09T22:16:20.961Z,20.67
2023-02-09T22:18:48.696Z,20.77
2023-02-09T22:21:16.212Z,20.15
2023-02-09T22:23:45.984Z,21.48
2023-02-09T22:26:14.027Z,22.95
2023-02-09T22:28:42.518Z,20.45
2023-02-09T22:31:20.309Z,19.80
2023-02-09T22:33:48.431Z,21.60
2023-02-09T22:36:18.232Z,21.85
2023-02-09T22:38:46.576Z,21.05
2023-02-09T22:41:22.839Z,22.45
2023-02-09T22:44:01.919Z,21.52
2023-02-09T22:46:31.559Z,21.10
2023-02-09T22:49:05.928Z,21.98
2023-02-09T22:51:34.529Z,20.20
2023-02-09T22:54:03.108Z,22.95
2023-02-09T22:56:31.043Z,21.23
2023-02-09T22:59:00.681Z,19.23
2023-02-09T23:01:29.110Z,18.02
2023-02-09T23:03:57.481Z,19.50
2023-02-09T23:06:27.417Z,22.52
2023-02-09T23:08:57.353Z,21.55
2023-02-09T23:11:24.844Z,24.25
2023-02-09T23:14:03.828Z,21.65
2023-02-09T23:16:36.276Z,21.33
2023-02-09T23:19:07.788Z,23.55
2023-02-09T23:21:37.741Z,25.65
2023-02-09T23:24:05.697Z,25.10
2023-02-09T23:26:33.631Z,20.75
2023-02-09T23:29:03.951Z,20.70
2023-02-09T23:31:31.547Z,21.73
2023-02-09T23:33:59.791Z,20.45
2023-02-09T23:36:29.580Z,19.45
2023-02-09T23:38:59.927Z,22.90
2023-02-09T23:41:27.865Z,20.25
2023-02-09T23:43:56.024Z,17.67
2023-02-09T23:46:27.930Z,20.13
2023-02-09T23:48:56.795Z,21.48
2023-02-09T23:51:32.511Z,20.40
2023-02-09T23:54:02.257Z,20.23
2023-02-09T23:56:31.895Z,20.02
2023-02-09T23:58:59.366Z,16.35
